sensor_id;sensor_type;location;lat;lon;timestamp;pressure;altitude;pressure_sealevel;temperature;humidity
50434;BME280;36361;38.954;-9.002;2023-05-21T00:00:12;100015.72;;;18.59;45.96
50434;BME280;36361;38.954;-9.002;2023-05-21T00:01:16;100027.41;;;18.40;46.90
50434;BME280;36361;38.954;-9.002;2023-05-21T00:02:19;100026.25;;;18.46;46.81
50434;BME280;36361;38.954;-9.002;2023-05-21T00:03:20;100016.31;;;18.51;46.49
50434;BME280;36361;38.954;-9.002;2023-05-21T00:04:21;100023.00;;;18.34;46.70
50434;BME280;36361;38.954;-9.002;2023-05-21T00:05:22;100020.31;;;18.29;47.17
50434;BME280;36361;38.954;-9.002;2023-05-21T00:06:23;100020.25;;;18.39;46.83
50434;BME280;36361;38.954;-9.002;2023-05-21T00:07:24;100016.41;;;18.35;46.80
50434;BME280;36361;38.954;-9.002;2023-05-21T00:08:24;100016.34;;;18.45;46.65
50434;BME280;36361;38.954;-9.002;2023-05-21T00:09:25;100006.50;;;18.34;46.40
50434;BME280;36361;38.954;-9.002;2023-05-21T00:10:26;100008.03;;;18.56;45.55
50434;BME280;36361;38.954;-9.002;2023-05-21T00:11:27;100010.78;;;18.66;45.27
50434;BME280;36361;38.954;-9.002;2023-05-21T00:12:27;100014.53;;;18.80;44.78
50434;BME280;36361;38.954;-9.002;2023-05-21T00:13:28;100012.19;;;18.97;44.47
50434;BME280;36361;38.954;-9.002;2023-05-21T00:14:29;100009.66;;;19.06;43.72
50434;BME280;36361;38.954;-9.002;2023-05-21T00:15:30;100009.34;;;19.13;43.82
50434;BME280;36361;38.954;-9.002;2023-05-21T00:16:30;100007.13;;;19.10;43.74
50434;BME280;36361;38.954;-9.002;2023-05-21T00:17:31;100000.78;;;18.75;43.83
50434;BME280;36361;38.954;-9.002;2023-05-21T00:18:33;99992.84;;;18.68;43.74
50434;BME280;36361;38.954;-9.002;2023-05-21T00:19:34;99999.53;;;18.91;43.91
50434;BME280;36361;38.954;-9.002;2023-05-21T00:20:35;100003.84;;;19.08;43.83
50434;BME280;36361;38.954;-9.002;2023-05-21T00:21:36;99998.09;;;19.04;43.75
50434;BME280;36361;38.954;-9.002;2023-05-21T00:22:37;99999.06;;;18.84;44.16
50434;BME280;36361;38.954;-9.002;2023-05-21T00:23:39;100000.25;;;18.63;44.58
50434;BME280;36361;38.954;-9.002;2023-05-21T00:24:42;99997.50;;;18.63;44.58
50434;BME280;36361;38.954;-9.002;2023-05-21T00:25:44;99997.88;;;18.51;44.91
50434;BME280;36361;38.954;-9.002;2023-05-21T00:26:46;99996.47;;;18.54;44.32
50434;BME280;36361;38.954;-9.002;2023-05-21T00:27:46;99993.63;;;18.64;44.59
50434;BME280;36361;38.954;-9.002;2023-05-21T00:28:47;99997.34;;;18.93;44.32
50434;BME280;36361;38.954;-9.002;2023-05-21T00:29:48;99994.47;;;19.09;45.04
50434;BME280;36361;38.954;-9.002;2023-05-21T00:30:51;99991.25;;;18.96;44.23
50434;BME280;36361;38.954;-9.002;2023-05-21T00:31:52;100000.06;;;18.98;44.10
50434;BME280;36361;38.954;-9.002;2023-05-21T00:32:58;99989.09;;;18.93;44.16
50434;BME280;36361;38.954;-9.002;2023-05-21T00:34:01;99989.59;;;18.95;44.30
50434;BME280;36361;38.954;-9.002;2023-05-21T00:35:02;99991.78;;;18.98;44.21
50434;BME280;36361;38.954;-9.002;2023-05-21T00:36:07;99991.09;;;19.17;43.85
50434;BME280;36361;38.954;-9.002;2023-05-21T00:37:08;99987.28;;;19.13;43.91
50434;BME280;36361;38.954;-9.002;2023-05-21T00:38:09;99986.72;;;19.11;44.08
50434;BME280;36361;38.954;-9.002;2023-05-21T00:39:11;99986.25;;;19.03;43.74
50434;BME280;36361;38.954;-9.002;2023-05-21T00:40:12;99983.91;;;18.82;44.29
50434;BME280;36361;38.954;-9.002;2023-05-21T00:41:13;99984.50;;;18.79;43.82
50434;BME280;36361;38.954;-9.002;2023-05-21T00:42:15;99979.34;;;18.67;44.10
50434;BME280;36361;38.954;-9.002;2023-05-21T00:43:18;99982.56;;;18.74;44.24
50434;BME280;36361;38.954;-9.002;2023-05-21T00:44:18;99978.75;;;18.70;43.81
50434;BME280;36361;38.954;-9.002;2023-05-21T00:45:19;99968.06;;;18.58;43.86
50434;BME280;36361;38.954;-9.002;2023-05-21T00:46:21;99985.66;;;18.62;43.74
50434;BME280;36361;38.954;-9.002;2023-05-21T00:47:22;99980.53;;;18.90;43.91
50434;BME280;36361;38.954;-9.002;2023-05-21T00:48:22;99981.94;;;19.21;42.94
50434;BME280;36361;38.954;-9.002;2023-05-21T00:49:23;99978.91;;;19.23;43.47
50434;BME280;36361;38.954;-9.002;2023-05-21T00:50:25;99983.81;;;19.26;42.87
50434;BME280;36361;38.954;-9.002;2023-05-21T00:51:26;99980.44;;;19.34;42.48
50434;BME280;36361;38.954;-9.002;2023-05-21T00:52:29;99974.22;;;19.47;41.48
50434;BME280;36361;38.954;-9.002;2023-05-21T00:53:33;99978.41;;;19.16;42.58
50434;BME280;36361;38.954;-9.002;2023-05-21T00:54:35;99975.53;;;19.31;42.56
50434;BME280;36361;38.954;-9.002;2023-05-21T00:55:36;99980.53;;;19.82;43.01
50434;BME280;36361;38.954;-9.002;2023-05-21T00:56:37;99988.22;;;19.61;41.30
50434;BME280;36361;38.954;-9.002;2023-05-21T00:57:38;99988.81;;;19.53;42.60
50434;BME280;36361;38.954;-9.002;2023-05-21T00:58:39;99991.25;;;19.30;42.94
50434;BME280;36361;38.954;-9.002;2023-05-21T00:59:41;99987.47;;;18.87;43.99
50434;BME280;36361;38.954;-9.002;2023-05-21T01:00:41;99997.34;;;18.93;44.00
50434;BME280;36361;38.954;-9.002;2023-05-21T01:01:43;100000.59;;;19.00;43.56
50434;BME280;36361;38.954;-9.002;2023-05-21T01:02:44;100000.47;;;19.16;43.30
50434;BME280;36361;38.954;-9.002;2023-05-21T01:03:46;99997.00;;;18.56;44.55
50434;BME280;36361;38.954;-9.002;2023-05-21T01:04:47;100001.69;;;18.65;44.39
50434;BME280;36361;38.954;-9.002;2023-05-21T01:05:51;100005.13;;;18.86;43.84
50434;BME280;36361;38.954;-9.002;2023-05-21T01:06:59;99999.34;;;18.83;43.86
50434;BME280;36361;38.954;-9.002;2023-05-21T01:08:00;100000.97;;;18.34;44.94
50434;BME280;36361;38.954;-9.002;2023-05-21T01:09:01;99999.56;;;18.42;44.65
50434;BME280;36361;38.954;-9.002;2023-05-21T01:10:05;99997.00;;;18.56;43.82
50434;BME280;36361;38.954;-9.002;2023-05-21T01:11:08;99995.47;;;18.34;44.26
50434;BME280;36361;38.954;-9.002;2023-05-21T01:12:10;99991.59;;;18.35;43.77
50434;BME280;36361;38.954;-9.002;2023-05-21T01:13:12;99987.78;;;18.26;43.53
50434;BME280;36361;38.954;-9.002;2023-05-21T01:14:15;99985.78;;;18.42;43.12
50434;BME280;36361;38.954;-9.002;2023-05-21T01:15:17;99995.41;;;18.44;43.03
50434;BME280;36361;38.954;-9.002;2023-05-21T01:16:24;99985.94;;;18.61;42.66
50434;BME280;36361;38.954;-9.002;2023-05-21T01:17:26;99986.94;;;18.80;42.14
50434;BME280;36361;38.954;-9.002;2023-05-21T01:18:33;99993.50;;;18.89;41.91
50434;BME280;36361;38.954;-9.002;2023-05-21T01:19:36;99989.84;;;18.99;41.74
50434;BME280;36361;38.954;-9.002;2023-05-21T01:20:37;99989.94;;;18.89;42.08
50434;BME280;36361;38.954;-9.002;2023-05-21T01:21:41;99991.19;;;19.01;41.73
50434;BME280;36361;38.954;-9.002;2023-05-21T01:22:54;99984.66;;;18.92;43.90
50434;BME280;36361;38.954;-9.002;2023-05-21T01:23:57;99982.63;;;18.64;42.49
50434;BME280;36361;38.954;-9.002;2023-05-21T01:24:58;99984.09;;;18.51;42.91
50434;BME280;36361;38.954;-9.002;2023-05-21T01:26:01;99984.19;;;18.85;43.94
50434;BME280;36361;38.954;-9.002;2023-05-21T01:27:03;99981.13;;;18.87;41.79
50434;BME280;36361;38.954;-9.002;2023-05-21T01:28:07;99980.81;;;18.93;41.58
50434;BME280;36361;38.954;-9.002;2023-05-21T01:29:20;99986.16;;;19.14;41.19
50434;BME280;36361;38.954;-9.002;2023-05-21T01:30:22;99979.09;;;19.02;41.19
50434;BME280;36361;38.954;-9.002;2023-05-21T01:31:34;99977.50;;;19.25;40.84
50434;BME280;36361;38.954;-9.002;2023-05-21T01:32:59;99978.31;;;19.26;40.58
50434;BME280;36361;38.954;-9.002;2023-05-21T01:34:04;99989.53;;;19.06;41.43
50434;BME280;36361;38.954;-9.002;2023-05-21T01:35:10;99978.28;;;18.97;41.46
50434;BME280;36361;38.954;-9.002;2023-05-21T01:36:18;99972.44;;;19.03;41.24
50434;BME280;36361;38.954;-9.002;2023-05-21T01:37:29;99976.94;;;18.94;41.56
50434;BME280;36361;38.954;-9.002;2023-05-21T01:38:41;99970.91;;;18.87;41.66
50434;BME280;36361;38.954;-9.002;2023-05-21T01:39:47;99985.16;;;18.99;41.70
50434;BME280;36361;38.954;-9.002;2023-05-21T01:42:05;99974.94;;;19.00;41.34
50434;BME280;36361;38.954;-9.002;2023-05-21T01:43:08;99971.06;;;18.67;42.28
50434;BME280;36361;38.954;-9.002;2023-05-21T01:44:10;99975.59;;;18.42;42.93
50434;BME280;36361;38.954;-9.002;2023-05-21T01:45:13;99969.94;;;18.63;42.42
50434;BME280;36361;38.954;-9.002;2023-05-21T01:46:18;99969.78;;;18.49;42.42
50434;BME280;36361;38.954;-9.002;2023-05-21T01:47:22;99970.38;;;18.41;42.72
50434;BME280;36361;38.954;-9.002;2023-05-21T01:48:29;99970.38;;;18.41;42.91
50434;BME280;36361;38.954;-9.002;2023-05-21T01:49:31;99967.41;;;18.27;43.21
50434;BME280;36361;38.954;-9.002;2023-05-21T01:50:33;99965.22;;;18.29;43.13
50434;BME280;36361;38.954;-9.002;2023-05-21T01:51:34;99962.53;;;18.14;43.40
50434;BME280;36361;38.954;-9.002;2023-05-21T01:52:36;99966.84;;;18.30;43.16
50434;BME280;36361;38.954;-9.002;2023-05-21T01:53:40;99962.72;;;18.28;43.32
50434;BME280;36361;38.954;-9.002;2023-05-21T01:54:41;99963.06;;;18.21;43.38
50434;BME280;36361;38.954;-9.002;2023-05-21T01:55:41;99966.94;;;18.10;43.69
50434;BME280;36361;38.954;-9.002;2023-05-21T01:56:43;99966.69;;;18.11;43.90
50434;BME280;36361;38.954;-9.002;2023-05-21T01:57:43;99962.53;;;18.14;43.92
50434;BME280;36361;38.954;-9.002;2023-05-21T01:58:44;99963.16;;;17.96;44.53
50434;BME280;36361;38.954;-9.002;2023-05-21T01:59:45;99958.66;;;18.10;44.54
50434;BME280;36361;38.954;-9.002;2023-05-21T02:00:47;99955.63;;;18.16;44.25
50434;BME280;36361;38.954;-9.002;2023-05-21T02:01:50;99955.44;;;18.03;44.85
50434;BME280;36361;38.954;-9.002;2023-05-21T02:02:51;99959.88;;;17.88;45.42
50434;BME280;36361;38.954;-9.002;2023-05-21T02:03:51;99956.56;;;17.91;45.46
50434;BME280;36361;38.954;-9.002;2023-05-21T02:04:52;99960.97;;;17.93;45.40
50434;BME280;36361;38.954;-9.002;2023-05-21T02:05:53;99961.50;;;17.95;45.23
50434;BME280;36361;38.954;-9.002;2023-05-21T02:06:54;99960.41;;;17.96;44.96
50434;BME280;36361;38.954;-9.002;2023-05-21T02:07:55;99957.44;;;17.77;45.87
50434;BME280;36361;38.954;-9.002;2023-05-21T02:09:05;99962.66;;;17.68;46.28
50434;BME280;36361;38.954;-9.002;2023-05-21T02:10:06;99962.66;;;17.63;46.38
50434;BME280;36361;38.954;-9.002;2023-05-21T02:11:07;99966.00;;;17.65;45.76
50434;BME280;36361;38.954;-9.002;2023-05-21T02:12:08;99963.19;;;17.80;45.52
50434;BME280;36361;38.954;-9.002;2023-05-21T02:13:09;99956.59;;;17.81;45.45
50434;BME280;36361;38.954;-9.002;2023-05-21T02:14:10;99958.00;;;17.63;45.68
50434;BME280;36361;38.954;-9.002;2023-05-21T02:15:13;99962.16;;;17.56;45.93
50434;BME280;36361;38.954;-9.002;2023-05-21T02:16:14;99962.13;;;17.71;45.74
50434;BME280;36361;38.954;-9.002;2023-05-21T02:17:15;99956.91;;;17.70;45.53
50434;BME280;36361;38.954;-9.002;2023-05-21T02:18:16;99962.72;;;17.48;46.43
50434;BME280;36361;38.954;-9.002;2023-05-21T02:19:18;99959.72;;;17.39;46.75
50434;BME280;36361;38.954;-9.002;2023-05-21T02:20:19;99955.56;;;17.42;46.60
50434;BME280;36361;38.954;-9.002;2023-05-21T02:21:21;99957.75;;;17.50;46.06
50434;BME280;36361;38.954;-9.002;2023-05-21T02:22:22;99957.22;;;17.43;46.22
50434;BME280;36361;38.954;-9.002;2023-05-21T02:23:23;99954.47;;;17.48;46.09
50434;BME280;36361;38.954;-9.002;2023-05-21T02:24:23;99948.38;;;17.61;45.76
50434;BME280;36361;38.954;-9.002;2023-05-21T02:25:24;99960.72;;;17.84;45.17
50434;BME280;36361;38.954;-9.002;2023-05-21T02:26:25;99946.69;;;17.80;45.57
50434;BME280;36361;38.954;-9.002;2023-05-21T02:27:26;99951.13;;;17.66;45.71
50434;BME280;36361;38.954;-9.002;2023-05-21T02:28:31;99951.69;;;17.58;45.65
50434;BME280;36361;38.954;-9.002;2023-05-21T02:29:32;99953.88;;;17.76;45.42
50434;BME280;36361;38.954;-9.002;2023-05-21T02:30:36;99942.03;;;17.71;45.34
50434;BME280;36361;38.954;-9.002;2023-05-21T02:31:36;99948.13;;;17.57;46.00
50434;BME280;36361;38.954;-9.002;2023-05-21T02:32:38;99943.69;;;17.61;46.00
50434;BME280;36361;38.954;-9.002;2023-05-21T02:33:41;99954.16;;;17.54;45.87
50434;BME280;36361;38.954;-9.002;2023-05-21T02:34:42;99944.84;;;17.45;46.20
50434;BME280;36361;38.954;-9.002;2023-05-21T02:35:45;99952.56;;;17.33;46.58
50434;BME280;36361;38.954;-9.002;2023-05-21T02:36:45;99947.63;;;17.30;46.40
50434;BME280;36361;38.954;-9.002;2023-05-21T02:37:51;99955.28;;;17.43;46.08
50434;BME280;36361;38.954;-9.002;2023-05-21T02:38:53;99960.53;;;17.34;46.38
50434;BME280;36361;38.954;-9.002;2023-05-21T02:39:54;99961.91;;;17.42;46.44
50434;BME280;36361;38.954;-9.002;2023-05-21T02:40:55;99951.66;;;17.63;45.70
50434;BME280;36361;38.954;-9.002;2023-05-21T02:41:57;99961.34;;;17.50;45.76
50434;BME280;36361;38.954;-9.002;2023-05-21T02:42:58;99955.56;;;17.52;45.70
50434;BME280;36361;38.954;-9.002;2023-05-21T02:43:58;99944.25;;;17.58;45.87
50434;BME280;36361;38.954;-9.002;2023-05-21T02:44:59;99946.16;;;17.63;45.66
50434;BME280;36361;38.954;-9.002;2023-05-21T02:46:00;99948.38;;;17.61;45.33
50434;BME280;36361;38.954;-9.002;2023-05-21T02:47:02;99942.34;;;17.59;45.54
50434;BME280;36361;38.954;-9.002;2023-05-21T02:48:03;99944.47;;;17.82;45.05
50434;BME280;36361;38.954;-9.002;2023-05-21T02:49:08;99946.69;;;17.80;45.21
50434;BME280;36361;38.954;-9.002;2023-05-21T02:50:14;99946.44;;;17.67;45.68
50434;BME280;36361;38.954;-9.002;2023-05-21T02:51:20;99945.63;;;17.66;45.46
50434;BME280;36361;38.954;-9.002;2023-05-21T02:52:21;99943.41;;;17.63;45.77
50434;BME280;36361;38.954;-9.002;2023-05-21T02:53:23;99938.50;;;17.45;45.94
50434;BME280;36361;38.954;-9.002;2023-05-21T02:54:30;99942.88;;;17.61;45.35
50434;BME280;36361;38.954;-9.002;2023-05-21T02:55:36;99937.38;;;17.61;45.32
50434;BME280;36361;38.954;-9.002;2023-05-21T02:56:40;99952.78;;;17.72;45.69
50434;BME280;36361;38.954;-9.002;2023-05-21T02:57:41;99947.81;;;17.64;45.59
50434;BME280;36361;38.954;-9.002;2023-05-21T02:58:42;99940.13;;;17.76;45.06
50434;BME280;36361;38.954;-9.002;2023-05-21T02:59:43;99950.00;;;17.77;45.20
50434;BME280;36361;38.954;-9.002;2023-05-21T03:00:44;99944.50;;;17.62;45.39
50434;BME280;36361;38.954;-9.002;2023-05-21T03:01:46;99951.66;;;17.73;45.35
50434;BME280;36361;38.954;-9.002;2023-05-21T03:02:46;99949.47;;;17.70;45.59
50434;BME280;36361;38.954;-9.002;2023-05-21T03:03:47;99941.78;;;17.62;45.89
50434;BME280;36361;38.954;-9.002;2023-05-21T03:04:48;99947.31;;;17.57;45.93
50434;BME280;36361;38.954;-9.002;2023-05-21T03:05:50;99948.13;;;17.57;46.30
50434;BME280;36361;38.954;-9.002;2023-05-21T03:06:52;99945.09;;;17.59;45.99
50434;BME280;36361;38.954;-9.002;2023-05-21T03:07:54;99944.56;;;17.42;46.16
50434;BME280;36361;38.954;-9.002;2023-05-21T03:08:55;99934.09;;;17.59;45.76
50434;BME280;36361;38.954;-9.002;2023-05-21T03:09:56;99939.88;;;17.52;45.89
50434;BME280;36361;38.954;-9.002;2023-05-21T03:10:57;99939.00;;;17.62;45.54
50434;BME280;36361;38.954;-9.002;2023-05-21T03:11:57;99943.41;;;17.68;45.48
50434;BME280;36361;38.954;-9.002;2023-05-21T03:12:58;99936.81;;;17.64;45.54
50434;BME280;36361;38.954;-9.002;2023-05-21T03:13:59;99937.41;;;17.51;46.00
50434;BME280;36361;38.954;-9.002;2023-05-21T03:15:02;99937.66;;;17.54;46.12
50434;BME280;36361;38.954;-9.002;2023-05-21T03:16:10;99947.81;;;17.64;45.96
50434;BME280;36361;38.954;-9.002;2023-05-21T03:17:11;99940.38;;;17.80;45.46
50434;BME280;36361;38.954;-9.002;2023-05-21T03:18:16;99936.81;;;17.74;45.54
50434;BME280;36361;38.954;-9.002;2023-05-21T03:19:17;99937.63;;;17.64;45.91
50434;BME280;36361;38.954;-9.002;2023-05-21T03:20:18;99937.38;;;17.61;46.21
50434;BME280;36361;38.954;-9.002;2023-05-21T03:21:19;99941.75;;;17.67;46.06
50434;BME280;36361;38.954;-9.002;2023-05-21T03:22:22;99942.88;;;17.61;46.36
50434;BME280;36361;38.954;-9.002;2023-05-21T03:23:22;99938.75;;;17.58;46.19
50434;BME280;36361;38.954;-9.002;2023-05-21T03:24:23;99946.16;;;17.73;46.11
50434;BME280;36361;38.954;-9.002;2023-05-21T03:25:24;99948.91;;;17.68;46.26
50434;BME280;36361;38.954;-9.002;2023-05-21T03:26:26;99951.94;;;17.72;46.26
50434;BME280;36361;38.954;-9.002;2023-05-21T03:27:27;99942.31;;;17.64;46.81
50434;BME280;36361;38.954;-9.002;2023-05-21T03:28:28;99952.28;;;17.34;47.79
50434;BME280;36361;38.954;-9.002;2023-05-21T03:29:30;99953.97;;;17.10;48.38
50434;BME280;36361;38.954;-9.002;2023-05-21T03:30:30;99942.69;;;17.12;48.69
50434;BME280;36361;38.954;-9.002;2023-05-21T03:31:52;99950.13;;;17.11;48.67
50434;BME280;36361;38.954;-9.002;2023-05-21T03:32:53;99947.34;;;17.31;47.97
50434;BME280;36361;38.954;-9.002;2023-05-21T03:33:55;99948.16;;;17.27;48.13
50434;BME280;36361;38.954;-9.002;2023-05-21T03:34:59;99940.75;;;17.17;48.48
50434;BME280;36361;38.954;-9.002;2023-05-21T03:36:00;99943.25;;;17.14;48.49
50434;BME280;36361;38.954;-9.002;2023-05-21T03:37:04;99942.44;;;17.13;48.64
50434;BME280;36361;38.954;-9.002;2023-05-21T03:38:06;99941.31;;;17.09;48.71
50434;BME280;36361;38.954;-9.002;2023-05-21T03:39:08;99936.09;;;17.13;48.87
50434;BME280;36361;38.954;-9.002;2023-05-21T03:40:09;99936.91;;;17.23;48.25
50434;BME280;36361;38.954;-9.002;2023-05-21T03:41:10;99933.59;;;17.26;48.16
50434;BME280;36361;38.954;-9.002;2023-05-21T03:42:15;99941.03;;;17.26;47.95
50434;BME280;36361;38.954;-9.002;2023-05-21T03:43:21;99935.81;;;17.29;48.22
50434;BME280;36361;38.954;-9.002;2023-05-21T03:44:22;99942.97;;;17.15;48.33
50434;BME280;36361;38.954;-9.002;2023-05-21T03:45:27;99943.22;;;17.24;48.45
50434;BME280;36361;38.954;-9.002;2023-05-21T03:46:54;99944.03;;;17.34;48.12
50434;BME280;36361;38.954;-9.002;2023-05-21T03:47:58;99944.06;;;17.19;49.08
50434;BME280;36361;38.954;-9.002;2023-05-21T03:49:01;99945.16;;;17.18;49.16
50434;BME280;36361;38.954;-9.002;2023-05-21T03:50:07;99951.19;;;17.35;48.99
50434;BME280;36361;38.954;-9.002;2023-05-21T03:51:08;99947.63;;;17.15;49.77
50434;BME280;36361;38.954;-9.002;2023-05-21T03:52:11;99941.03;;;17.21;50.19
50434;BME280;36361;38.954;-9.002;2023-05-21T03:53:13;99942.97;;;17.20;50.35
50434;BME280;36361;38.954;-9.002;2023-05-21T03:54:15;99946.53;;;17.21;49.89
50434;BME280;36361;38.954;-9.002;2023-05-21T03:55:17;99941.88;;;17.21;49.94
50434;BME280;36361;38.954;-9.002;2023-05-21T03:56:18;99952.59;;;17.23;50.13
50434;BME280;36361;38.954;-9.002;2023-05-21T03:57:19;99946.28;;;17.12;49.90
50434;BME280;36361;38.954;-9.002;2023-05-21T03:58:21;99947.94;;;17.03;51.33
50434;BME280;36361;38.954;-9.002;2023-05-21T03:59:22;99950.13;;;17.21;50.84
50434;BME280;36361;38.954;-9.002;2023-05-21T04:00:23;99952.31;;;17.29;50.57
50434;BME280;36361;38.954;-9.002;2023-05-21T04:01:23;99943.50;;;17.22;50.72
50434;BME280;36361;38.954;-9.002;2023-05-21T04:02:26;99946.28;;;17.12;49.54
50434;BME280;36361;38.954;-9.002;2023-05-21T04:03:27;99955.06;;;17.29;48.65
50434;BME280;36361;38.954;-9.002;2023-05-21T04:04:28;99954.50;;;17.38;48.49
50434;BME280;36361;38.954;-9.002;2023-05-21T04:05:29;99954.50;;;17.22;48.60
50434;BME280;36361;38.954;-9.002;2023-05-21T04:06:30;99954.50;;;17.32;48.69
50434;BME280;36361;38.954;-9.002;2023-05-21T04:07:31;99952.84;;;17.26;48.89
50434;BME280;36361;38.954;-9.002;2023-05-21T04:08:32;99948.72;;;17.34;48.84
50434;BME280;36361;38.954;-9.002;2023-05-21T04:09:33;99944.03;;;17.34;48.59
50434;BME280;36361;38.954;-9.002;2023-05-21T04:10:33;99954.78;;;17.31;48.93
50434;BME280;36361;38.954;-9.002;2023-05-21T04:11:34;99940.47;;;17.39;48.63
50434;BME280;36361;38.954;-9.002;2023-05-21T04:12:37;99948.44;;;17.35;48.85
50434;BME280;36361;38.954;-9.002;2023-05-21T04:13:38;99949.25;;;17.36;49.20
50434;BME280;36361;38.954;-9.002;2023-05-21T04:14:38;99948.44;;;17.30;49.59
50434;BME280;36361;38.954;-9.002;2023-05-21T04:15:39;99952.00;;;17.36;49.68
50434;BME280;36361;38.954;-9.002;2023-05-21T04:16:40;99938.47;;;17.55;49.26
50434;BME280;36361;38.954;-9.002;2023-05-21T04:17:44;99940.97;;;17.46;49.53
50434;BME280;36361;38.954;-9.002;2023-05-21T04:18:46;99946.22;;;17.43;50.16
50434;BME280;36361;38.954;-9.002;2023-05-21T04:19:48;99934.66;;;17.46;49.96
50434;BME280;36361;38.954;-9.002;2023-05-21T04:20:49;99933.56;;;17.47;50.04
50434;BME280;36361;38.954;-9.002;2023-05-21T04:21:50;99945.69;;;17.41;50.67
50434;BME280;36361;38.954;-9.002;2023-05-21T04:22:52;99946.78;;;17.40;51.22
50434;BME280;36361;38.954;-9.002;2023-05-21T04:23:52;99942.97;;;17.15;52.37
50434;BME280;36361;38.954;-9.002;2023-05-21T04:25:19;99938.53;;;17.40;52.07
50434;BME280;36361;38.954;-9.002;2023-05-21T04:26:21;99936.91;;;17.18;52.87
50434;BME280;36361;38.954;-9.002;2023-05-21T04:27:24;99938.81;;;17.18;52.53
50434;BME280;36361;38.954;-9.002;2023-05-21T04:28:27;99937.47;;;17.20;52.63
50434;BME280;36361;38.954;-9.002;2023-05-21T04:29:29;99938.59;;;17.04;54.08
50434;BME280;36361;38.954;-9.002;2023-05-21T04:30:29;99938.03;;;17.07;54.28
50434;BME280;36361;38.954;-9.002;2023-05-21T04:31:30;99937.19;;;17.06;54.01
50434;BME280;36361;38.954;-9.002;2023-05-21T04:32:31;99940.22;;;17.15;54.21
50434;BME280;36361;38.954;-9.002;2023-05-21T04:33:34;99936.38;;;16.96;55.09
50434;BME280;36361;38.954;-9.002;2023-05-21T04:34:35;99938.03;;;16.92;55.03
50434;BME280;36361;38.954;-9.002;2023-05-21T04:35:37;99933.06;;;16.89;55.57
50434;BME280;36361;38.954;-9.002;2023-05-21T04:36:44;99939.16;;;17.01;55.12
50434;BME280;36361;38.954;-9.002;2023-05-21T04:37:46;99938.00;;;17.17;54.75
50434;BME280;36361;38.954;-9.002;2023-05-21T04:38:47;99943.22;;;17.09;55.27
50434;BME280;36361;38.954;-9.002;2023-05-21T04:39:49;99939.13;;;17.11;55.00
50434;BME280;36361;38.954;-9.002;2023-05-21T04:40:50;99946.53;;;17.16;55.30
50434;BME280;36361;38.954;-9.002;2023-05-21T04:41:51;99952.88;;;16.96;56.41
50434;BME280;36361;38.954;-9.002;2023-05-21T04:42:54;99947.09;;;17.13;55.68
50434;BME280;36361;38.954;-9.002;2023-05-21T04:43:58;99946.28;;;17.12;56.08
50434;BME280;36361;38.954;-9.002;2023-05-21T04:45:01;99953.44;;;16.83;57.47
50434;BME280;36361;38.954;-9.002;2023-05-21T04:46:04;99951.22;;;16.85;57.20
50434;BME280;36361;38.954;-9.002;2023-05-21T04:47:05;99952.59;;;16.82;57.61
50434;BME280;36361;38.954;-9.002;2023-05-21T04:48:07;99950.13;;;16.81;58.40
50434;BME280;36361;38.954;-9.002;2023-05-21T04:49:11;99945.19;;;16.77;58.26
50434;BME280;36361;38.954;-9.002;2023-05-21T04:50:15;99949.03;;;16.76;58.67
50434;BME280;36361;38.954;-9.002;2023-05-21T04:51:16;99958.34;;;16.65;59.51
50434;BME280;36361;38.954;-9.002;2023-05-21T04:52:17;99949.56;;;16.68;58.68
50434;BME280;36361;38.954;-9.002;2023-05-21T04:53:18;99957.81;;;16.78;58.45
50434;BME280;36361;38.954;-9.002;2023-05-21T04:54:19;99952.56;;;16.67;59.25
50434;BME280;36361;38.954;-9.002;2023-05-21T04:55:20;99946.25;;;16.82;58.59
50434;BME280;36361;38.954;-9.002;2023-05-21T04:56:20;99950.94;;;16.91;58.00
50434;BME280;36361;38.954;-9.002;2023-05-21T04:57:31;99946.28;;;17.02;57.25
50434;BME280;36361;38.954;-9.002;2023-05-21T04:58:33;99950.69;;;16.83;58.05
50434;BME280;36361;38.954;-9.002;2023-05-21T04:59:34;99946.84;;;16.84;58.76
50434;BME280;36361;38.954;-9.002;2023-05-21T05:00:34;99945.72;;;16.80;59.22
50434;BME280;36361;38.954;-9.002;2023-05-21T05:01:38;99949.84;;;16.77;59.05
50434;BME280;36361;38.954;-9.002;2023-05-21T05:02:39;99943.81;;;16.85;59.91
50434;BME280;36361;38.954;-9.002;2023-05-21T05:03:39;99942.97;;;16.90;59.57
50434;BME280;36361;38.954;-9.002;2023-05-21T05:04:40;99950.13;;;16.86;59.25
50434;BME280;36361;38.954;-9.002;2023-05-21T05:05:43;99952.59;;;16.77;59.80
50434;BME280;36361;38.954;-9.002;2023-05-21T05:06:44;99948.47;;;16.69;60.27
50434;BME280;36361;38.954;-9.002;2023-05-21T05:07:45;99947.38;;;16.75;60.30
50434;BME280;36361;38.954;-9.002;2023-05-21T05:08:45;99946.25;;;16.71;60.37
50434;BME280;36361;38.954;-9.002;2023-05-21T05:09:46;99940.78;;;16.76;61.00
50434;BME280;36361;38.954;-9.002;2023-05-21T05:10:47;99943.50;;;16.82;60.45
50434;BME280;36361;38.954;-9.002;2023-05-21T05:11:49;99944.91;;;16.89;59.83
50434;BME280;36361;38.954;-9.002;2023-05-21T05:12:52;99949.03;;;16.97;59.57
50434;BME280;36361;38.954;-9.002;2023-05-21T05:13:53;99957.81;;;16.89;60.19
50434;BME280;36361;38.954;-9.002;2023-05-21T05:14:54;99946.28;;;17.02;59.71
50434;BME280;36361;38.954;-9.002;2023-05-21T05:15:55;99954.78;;;17.16;58.56
50434;BME280;36361;38.954;-9.002;2023-05-21T05:16:57;99950.94;;;17.12;59.44
50434;BME280;36361;38.954;-9.002;2023-05-21T05:18:01;99953.38;;;17.33;57.86
50434;BME280;36361;38.954;-9.002;2023-05-21T05:19:02;99950.06;;;17.42;57.55
50434;BME280;36361;38.954;-9.002;2023-05-21T05:20:03;99945.72;;;17.15;58.76
50434;BME280;36361;38.954;-9.002;2023-05-21T05:21:04;99944.63;;;17.01;60.77
50434;BME280;36361;38.954;-9.002;2023-05-21T05:22:05;99945.19;;;16.88;60.76
50434;BME280;36361;38.954;-9.002;2023-05-21T05:23:07;99942.44;;;16.83;61.53
50434;BME280;36361;38.954;-9.002;2023-05-21T05:24:07;99940.78;;;16.92;61.68
50434;BME280;36361;38.954;-9.002;2023-05-21T05:25:09;99948.47;;;17.00;61.82
50434;BME280;36361;38.954;-9.002;2023-05-21T05:26:10;99949.56;;;17.14;60.54
50434;BME280;36361;38.954;-9.002;2023-05-21T05:27:11;99935.81;;;17.19;59.87